EmailTwitter


Observations de surface / Québec / CYUL (71627)

Régions: Québec | Canada | États-Unis | Europe | France | UK | Ailleurs
Station
Affichage
Infos & localisation pour CYUL (71627) | Aide pour décoder les METARs

Observations prises le 2019-02-16 à 10H00 UTC à MONTREAL INTL A, QB (CYUL)

Etat du ciel: couvert.

Obstacle(s) à la visibilité: faibles averses de neige.

Température: -2.0 Celsius

Point de rosée: -7.0 Celsius

Humidité relative: 69%

Facteur vent: -9.

Vents: Sud-ouest à 33 km/h ou 18 noeuds.

Pression au niveau moyen de la mer: 100.62 kilopascals.

Calage altimétrique: 100.58 kilopascals ou 29.70 pouces de mercure.

Visibilité horizontale: 15.00 milles terrestres ou 24.00 kilomètres.

Hauteur du plafond: 1463 mètres ( 4800 pieds ).

Observation METAR:

CYUL 161000Z 24018KT 15SM -SHSN OVC048 M02/M07 A2970 RMK SC8 CVCTV CLD EMBD

SLP062=